Time;durP1;ratioP1;P1;durP2;ratioP2;P2;SDS_P1;SDS_P2;PMS_P1;PMS_P2;Temp;Humidity;BMP_temperature;BMP_pressure;BME280_temperature;BME280_humidity;BME280_pressure;Samples;Min_cycle;Max_cycle;Signal;HPM_P1;HPM_P2
2022/05/01 00:00:15;;;;;;;7.90;6.70;;;8.50;99.90;;;;;;483989;244;28012;-70
2022/05/01 00:02:17;;;;;;;12.43;7.37;;;8.50;99.90;;;;;;483960;245;27666;-72
2022/05/01 00:04:18;;;;;;;9.00;8.13;;;8.50;99.90;;;;;;483933;245;28042;-70
2022/05/01 00:06:20;;;;;;;7.90;7.10;;;8.50;99.90;;;;;;483980;245;27947;-70
2022/05/01 00:08:21;;;;;;;9.03;7.60;;;8.50;99.90;;;;;;483974;245;28561;-70
2022/05/01 00:10:22;;;;;;;8.43;7.27;;;8.50;99.90;;;;;;483967;245;28932;-75
2022/05/01 00:12:23;;;;;;;7.90;6.77;;;8.50;99.90;;;;;;483948;245;28346;-70
2022/05/01 00:14:25;;;;;;;13.60;8.03;;;8.50;99.90;;;;;;483971;245;28376;-70
2022/05/01 00:16:26;;;;;;;6.70;6.10;;;8.50;99.90;;;;;;483987;245;28339;-70
2022/05/01 00:18:27;;;;;;;6.40;5.77;;;8.50;99.90;;;;;;483949;245;27918;-71
2022/05/01 00:20:28;;;;;;;7.13;5.70;;;8.60;99.90;;;;;;483969;245;28081;-70
2022/05/01 00:22:30;;;;;;;5.90;5.40;;;8.50;99.90;;;;;;483963;244;27967;-71
2022/05/01 00:24:31;;;;;;;8.57;5.60;;;8.50;99.90;;;;;;484001;245;27933;-71
2022/05/01 00:26:32;;;;;;;6.20;4.90;;;8.50;99.90;;;;;;483981;245;27987;-71
2022/05/01 00:28:33;;;;;;;5.53;4.93;;;8.50;99.90;;;;;;483991;245;27708;-71
2022/05/01 00:30:35;;;;;;;6.97;5.63;;;8.50;99.90;;;;;;483934;245;28114;-71
2022/05/01 00:36:57;;;;;;;6.20;4.90;;;8.40;99.90;;;;;;485321;245;28491;-69
2022/05/01 00:38:58;;;;;;;5.57;5.07;;;8.40;99.90;;;;;;485318;245;28368;-71
2022/05/01 00:40:59;;;;;;;5.20;4.80;;;8.40;99.90;;;;;;485362;245;28005;-75
2022/05/01 00:43:00;;;;;;;4.50;4.20;;;8.40;99.90;;;;;;485376;245;27964;-71
2022/05/01 00:45:01;;;;;;;5.20;4.70;;;8.40;99.90;;;;;;485351;242;27748;-74
2022/05/01 00:47:03;;;;;;;5.07;4.63;;;8.40;99.90;;;;;;485340;245;28078;-71
2022/05/01 00:49:04;;;;;;;4.47;4.07;;;8.30;99.90;;;;;;485347;245;27965;-71
2022/05/01 00:51:05;;;;;;;4.63;4.27;;;8.20;99.90;;;;;;485429;245;27911;-71
2022/05/01 00:53:06;;;;;;;4.73;4.33;;;8.20;99.90;;;;;;483982;246;27643;-70
2022/05/01 00:55:08;;;;;;;4.20;3.90;;;8.10;99.90;;;;;;484008;245;28085;-70
2022/05/01 00:57:10;;;;;;;4.73;4.30;;;8.00;99.90;;;;;;483986;245;27844;-70
2022/05/01 00:59:10;;;;;;;4.40;4.00;;;7.90;99.90;;;;;;483948;245;28112;-71
2022/05/01 01:01:11;;;;;;;4.90;4.50;;;7.90;99.90;;;;;;484001;245;28452;-70
2022/05/01 01:03:13;;;;;;;4.43;4.10;;;7.80;99.90;;;;;;483996;245;28056;-70
2022/05/01 01:05:14;;;;;;;4.50;4.10;;;7.80;99.90;;;;;;484005;245;27978;-71
2022/05/01 01:07:15;;;;;;;4.23;3.83;;;7.70;99.90;;;;;;483997;244;27658;-71
2022/05/01 01:09:16;;;;;;;4.10;3.80;;;7.70;99.90;;;;;;483978;244;28539;-71
2022/05/01 01:11:18;;;;;;;4.87;4.37;;;7.70;99.90;;;;;;483991;240;29320;-70
2022/05/01 01:13:19;;;;;;;4.33;3.93;;;7.70;99.90;;;;;;483994;244;28536;-69
2022/05/01 01:15:20;;;;;;;4.50;4.10;;;7.60;99.90;;;;;;483865;245;28862;-70
2022/05/01 01:17:21;;;;;;;4.20;3.90;;;7.50;99.90;;;;;;483366;245;28609;-70
2022/05/01 01:19:23;;;;;;;4.13;3.83;;;7.50;99.90;;;;;;483978;245;28099;-70
2022/05/01 01:21:24;;;;;;;4.30;3.90;;;7.50;99.90;;;;;;483964;245;28027;-70
2022/05/01 01:23:25;;;;;;;5.50;4.60;;;7.50;99.90;;;;;;483981;245;27832;-71
2022/05/01 01:25:29;;;;;;;5.43;4.90;;;7.40;99.90;;;;;;483953;244;28027;-72
2022/05/01 01:27:31;;;;;;;6.30;4.97;;;7.40;99.90;;;;;;484000;245;28460;-72
2022/05/01 01:31:52;;;;;;;4.23;3.93;;;7.50;99.90;;;;;;483944;246;28616;-71
2022/05/01 01:33:53;;;;;;;5.27;4.07;;;7.50;99.90;;;;;;483990;245;28487;-73
2022/05/01 01:35:54;;;;;;;4.70;4.30;;;7.60;99.90;;;;;;483939;245;28306;-71
2022/05/01 01:37:55;;;;;;;4.33;3.93;;;7.60;99.90;;;;;;483939;246;28291;-68
2022/05/01 01:39:56;;;;;;;4.00;3.70;;;7.60;99.90;;;;;;484020;244;27959;-70
2022/05/01 01:41:58;;;;;;;4.10;3.80;;;7.60;99.90;;;;;;475528;250;27942;-70
2022/05/01 01:43:59;;;;;;;4.50;4.10;;;7.70;99.90;;;;;;485356;244;28099;-71
2022/05/01 01:46:00;;;;;;;3.97;3.67;;;7.70;99.90;;;;;;485449;245;28071;-71
2022/05/01 01:48:01;;;;;;;3.90;3.60;;;7.70;99.90;;;;;;485407;245;27893;-72
2022/05/01 01:50:03;;;;;;;4.80;4.30;;;7.60;99.90;;;;;;485482;245;27872;-70
2022/05/01 01:52:04;;;;;;;4.03;3.67;;;7.60;99.90;;;;;;483994;246;28537;-70
2022/05/01 01:54:06;;;;;;;4.47;3.50;;;7.50;99.90;;;;;;483729;245;28551;-74
2022/05/01 01:56:10;;;;;;;4.10;3.70;;;7.40;99.90;;;;;;477809;249;28012;-70
2022/05/01 01:58:08;;;;;;;4.83;4.33;;;7.40;99.90;;;;;;477633;249;28471;-69
2022/05/01 02:00:09;;;;;;;4.10;3.70;;;7.40;99.90;;;;;;477814;249;28227;-70
2022/05/01 02:02:10;;;;;;;4.40;3.77;;;7.40;99.90;;;;;;477815;249;27982;-69
2022/05/01 02:04:11;;;;;;;5.37;4.30;;;7.30;99.90;;;;;;477789;248;27907;-74
2022/05/01 02:06:14;;;;;;;4.93;4.43;;;7.20;99.90;;;;;;477671;249;27584;-70
2022/05/01 02:08:14;;;;;;;4.53;4.13;;;7.20;99.90;;;;;;477640;249;27952;-68
2022/05/01 02:10:15;;;;;;;4.70;4.30;;;7.20;99.90;;;;;;477711;248;27923;-70
2022/05/01 02:12:16;;;;;;;5.93;4.33;;;7.10;99.90;;;;;;477803;248;27878;-71
2022/05/01 02:14:19;;;;;;;4.57;4.20;;;7.10;99.90;;;;;;477808;249;27804;-71
2022/05/01 02:16:19;;;;;;;4.17;3.77;;;7.00;99.90;;;;;;477752;249;27872;-70
2022/05/01 02:18:21;;;;;;;4.43;4.03;;;7.00;99.90;;;;;;477795;249;27916;-70
2022/05/01 02:20:22;;;;;;;6.10;4.63;;;6.90;99.90;;;;;;477784;249;28787;-70
2022/05/01 02:22:24;;;;;;;5.47;4.03;;;6.90;99.90;;;;;;477837;248;27889;-71
2022/05/01 02:24:25;;;;;;;4.43;4.00;;;6.90;99.90;;;;;;477791;249;28172;-71
2022/05/01 02:26:26;;;;;;;5.40;4.18;;;6.90;99.90;;;;;;477807;249;28037;-70
2022/05/01 02:28:27;;;;;;;4.50;4.10;;;6.90;99.90;;;;;;477811;248;27959;-68
2022/05/01 02:30:29;;;;;;;4.32;3.90;;;6.90;99.90;;;;;;477782;248;28574;-68
2022/05/01 02:32:30;;;;;;;7.10;4.30;;;6.90;99.90;;;;;;477802;249;27441;-74
2022/05/01 02:34:31;;;;;;;5.50;4.17;;;7.00;99.90;;;;;;477810;249;27409;-68
2022/05/01 02:36:32;;;;;;;4.97;4.47;;;7.00;99.90;;;;;;477808;249;28023;-71
2022/05/01 02:38:34;;;;;;;4.72;4.32;;;7.00;99.90;;;;;;477791;249;28578;-70
2022/05/01 02:40:35;;;;;;;4.60;4.20;;;7.00;99.90;;;;;;477792;249;27521;-70
2022/05/01 02:42:36;;;;;;;4.70;4.00;;;7.00;99.90;;;;;;477773;249;28261;-69
2022/05/01 02:44:37;;;;;;;7.23;4.67;;;7.10;99.90;;;;;;477789;249;28534;-68
2022/05/01 02:46:39;;;;;;;5.03;4.63;;;7.10;99.90;;;;;;477789;249;28405;-68
2022/05/01 02:48:40;;;;;;;5.90;4.40;;;7.10;99.90;;;;;;477770;249;28788;-68
2022/05/01 02:50:41;;;;;;;4.60;4.20;;;7.10;99.90;;;;;;477763;249;28355;-69
2022/05/01 02:52:42;;;;;;;4.60;4.10;;;7.20;99.90;;;;;;477729;249;28220;-70
2022/05/01 02:54:44;;;;;;;4.80;4.40;;;7.20;99.90;;;;;;477777;249;29214;-68
2022/05/01 02:56:45;;;;;;;6.00;4.63;;;7.10;99.90;;;;;;477772;249;27449;-69
2022/05/01 02:58:46;;;;;;;4.97;4.47;;;7.10;99.90;;;;;;477717;248;27880;-69
2022/05/01 03:00:47;;;;;;;5.10;4.60;;;7.20;99.90;;;;;;477790;249;28049;-71
2022/05/01 03:02:49;;;;;;;4.33;3.93;;;7.10;99.90;;;;;;477774;249;28368;-70
2022/05/01 03:04:50;;;;;;;5.30;4.80;;;7.10;99.90;;;;;;477767;248;27986;-68
2022/05/01 03:06:52;;;;;;;4.97;4.33;;;7.00;99.90;;;;;;477769;248;27947;-72
2022/05/01 03:08:52;;;;;;;4.40;4.00;;;7.00;99.90;;;;;;477762;248;27523;-70
2022/05/01 03:10:54;;;;;;;4.60;4.20;;;6.90;99.90;;;;;;477788;249;27859;-68
2022/05/01 03:12:55;;;;;;;4.77;4.37;;;6.90;99.90;;;;;;477794;249;27473;-71
2022/05/01 03:14:57;;;;;;;5.03;4.60;;;6.80;99.90;;;;;;477763;249;27803;-68
2022/05/01 03:16:57;;;;;;;4.90;4.50;;;6.70;99.90;;;;;;477753;249;28465;-69
2022/05/01 03:23:38;;;;;;;5.00;4.43;;;6.80;99.90;;;;;;477791;249;27906;-70
2022/05/01 03:25:39;;;;;;;5.03;4.57;;;6.90;99.90;;;;;;477797;249;27537;-68
2022/05/01 03:27:40;;;;;;;5.00;4.50;;;6.90;99.90;;;;;;477783;249;28743;-69
2022/05/01 03:29:41;;;;;;;3.93;3.63;;;7.00;99.90;;;;;;477791;248;27983;-70
2022/05/01 03:31:44;;;;;;;4.68;3.90;;;7.10;99.90;;;;;;477735;249;29119;-69
2022/05/01 03:33:44;;;;;;;5.03;4.60;;;7.10;99.90;;;;;;477685;249;27904;-70
2022/05/01 03:35:45;;;;;;;5.03;4.30;;;7.10;99.90;;;;;;477762;249;29111;-70
2022/05/01 03:37:46;;;;;;;5.10;4.60;;;7.20;99.90;;;;;;477794;249;27928;-69
2022/05/01 03:39:48;;;;;;;5.03;4.63;;;7.10;99.90;;;;;;477740;249;27925;-71
2022/05/01 03:41:49;;;;;;;4.70;4.30;;;7.00;99.90;;;;;;477780;249;28289;-69
2022/05/01 03:43:50;;;;;;;4.83;4.30;;;7.00;99.90;;;;;;477491;248;27774;-69
2022/05/01 03:45:51;;;;;;;4.60;4.20;;;7.00;99.90;;;;;;477648;249;27646;-70
2022/05/01 03:47:53;;;;;;;4.67;4.10;;;7.00;99.90;;;;;;477632;249;27965;-70
2022/05/01 03:49:54;;;;;;;5.00;4.50;;;7.10;99.90;;;;;;477670;249;27932;-71
2022/05/01 03:51:56;;;;;;;4.83;4.37;;;7.20;99.90;;;;;;477780;249;28759;-69
2022/05/01 03:53:57;;;;;;;4.70;4.30;;;7.20;99.90;;;;;;477751;248;28014;-69
2022/05/01 03:55:59;;;;;;;4.60;4.20;;;7.20;99.90;;;;;;478577;246;27859;-69
2022/05/01 03:58:00;;;;;;;5.03;4.60;;;7.10;99.90;;;;;;483964;244;28125;-70
2022/05/01 04:00:01;;;;;;;4.20;3.90;;;7.00;99.90;;;;;;483974;245;27894;-69
2022/05/01 04:02:02;;;;;;;4.53;4.13;;;7.00;99.90;;;;;;483959;244;29349;-69
2022/05/01 04:04:04;;;;;;;4.77;4.37;;;7.00;99.90;;;;;;483992;245;28566;-71
2022/05/01 04:06:06;;;;;;;4.53;4.13;;;7.00;99.90;;;;;;483983;245;28509;-69
2022/05/01 04:08:08;;;;;;;4.83;4.40;;;7.00;99.90;;;;;;483977;245;29045;-69
2022/05/01 04:10:08;;;;;;;4.50;4.10;;;7.10;99.90;;;;;;483904;246;28432;-69
2022/05/01 04:12:09;;;;;;;4.33;4.00;;;7.10;99.90;;;;;;483950;245;28399;-69
2022/05/01 04:14:11;;;;;;;5.40;4.40;;;7.10;99.90;;;;;;483846;245;28002;-70
2022/05/01 04:16:11;;;;;;;4.72;4.18;;;7.20;99.90;;;;;;483945;245;28862;-70
2022/05/01 04:18:12;;;;;;;4.57;4.23;;;7.20;99.90;;;;;;483889;245;27509;-69
2022/05/01 04:20:14;;;;;;;4.70;4.30;;;7.20;99.90;;;;;;483961;245;28869;-69
2022/05/01 04:22:15;;;;;;;5.10;4.60;;;7.10;99.90;;;;;;483980;245;28083;-69
2022/05/01 04:24:16;;;;;;;4.80;4.23;;;7.10;99.90;;;;;;483952;245;28137;-74
2022/05/01 04:26:17;;;;;;;4.60;4.20;;;7.10;99.90;;;;;;483920;245;27634;-69
2022/05/01 04:28:19;;;;;;;4.30;4.00;;;7.10;99.90;;;;;;483971;245;27899;-69
2022/05/01 04:30:20;;;;;;;5.00;4.47;;;7.10;99.90;;;;;;483944;245;27878;-69
2022/05/01 04:32:22;;;;;;;5.33;4.90;;;7.10;99.90;;;;;;483953;245;27896;-69
2022/05/01 04:34:23;;;;;;;5.20;4.80;;;7.10;99.90;;;;;;483943;245;28127;-70
2022/05/01 04:36:25;;;;;;;5.47;4.50;;;7.20;99.90;;;;;;483975;245;28085;-71
2022/05/01 04:38:26;;;;;;;4.57;4.17;;;7.20;99.90;;;;;;483961;245;28103;-70
2022/05/01 04:40:27;;;;;;;4.83;4.20;;;7.30;99.90;;;;;;483971;245;28156;-68
2022/05/01 04:42:28;;;;;;;4.47;4.07;;;7.30;99.90;;;;;;483945;245;28363;-71
2022/05/01 04:44:29;;;;;;;4.53;4.13;;;7.30;99.90;;;;;;483904;244;28179;-73
2022/05/01 04:46:30;;;;;;;3.83;3.53;;;7.30;99.90;;;;;;483988;244;28023;-70
2022/05/01 04:48:31;;;;;;;4.90;4.40;;;7.30;99.90;;;;;;483988;245;28183;-70
2022/05/01 04:50:33;;;;;;;4.10;3.77;;;7.30;99.90;;;;;;483968;244;27596;-70
2022/05/01 04:52:34;;;;;;;4.70;4.27;;;7.40;99.90;;;;;;483949;245;27959;-71
2022/05/01 04:54:35;;;;;;;4.60;4.20;;;7.40;99.90;;;;;;483979;245;27898;-70
2022/05/01 04:58:56;;;;;;;4.70;4.30;;;7.50;99.90;;;;;;483789;246;28381;-71
2022/05/01 05:00:57;;;;;;;4.33;3.93;;;7.50;99.90;;;;;;483969;244;28293;-70
2022/05/01 05:02:58;;;;;;;4.43;4.03;;;7.60;99.90;;;;;;483964;245;28541;-71
2022/05/01 05:04:59;;;;;;;5.10;4.60;;;7.60;99.90;;;;;;483987;245;28434;-70
2022/05/01 05:07:01;;;;;;;4.97;4.57;;;7.60;99.90;;;;;;483987;245;28520;-70
2022/05/01 05:11:21;;;;;;;4.77;4.37;;;7.60;99.90;;;;;;483959;245;28017;-69
2022/05/01 05:13:24;;;;;;;5.03;4.60;;;7.60;99.90;;;;;;483952;244;28074;-69
2022/05/01 05:15:24;;;;;;;5.27;4.77;;;7.60;99.90;;;;;;483967;246;27865;-75
2022/05/01 05:17:25;;;;;;;5.47;4.97;;;7.70;99.90;;;;;;483996;245;28080;-71
2022/05/01 05:19:26;;;;;;;5.30;4.80;;;7.70;99.90;;;;;;484002;245;28025;-69
2022/05/01 05:21:28;;;;;;;10.53;5.20;;;7.70;99.90;;;;;;484023;245;28079;-71
2022/05/01 05:23:29;;;;;;;5.73;5.10;;;7.70;99.90;;;;;;483983;240;28455;-70
2022/05/01 05:25:30;;;;;;;5.83;5.17;;;7.70;99.90;;;;;;484000;245;28639;-73
2022/05/01 05:27:31;;;;;;;6.70;5.67;;;7.60;99.90;;;;;;483982;245;28220;-71
2022/05/01 05:29:33;;;;;;;5.13;4.73;;;7.60;99.90;;;;;;483937;245;28597;-71
2022/05/01 05:31:34;;;;;;;6.43;5.83;;;7.60;99.90;;;;;;483980;240;28225;-70
2022/05/01 05:33:35;;;;;;;6.13;5.53;;;7.60;99.90;;;;;;483990;245;27882;-70
2022/05/01 05:35:37;;;;;;;5.40;4.90;;;7.60;99.90;;;;;;483994;245;27994;-70
2022/05/01 05:37:38;;;;;;;7.00;5.80;;;7.70;99.90;;;;;;483982;244;27917;-70
2022/05/01 05:39:39;;;;;;;7.70;5.40;;;7.70;99.90;;;;;;483956;244;27968;-71
2022/05/01 05:41:40;;;;;;;5.90;5.13;;;7.70;99.90;;;;;;483986;245;28134;-70
2022/05/01 05:43:41;;;;;;;6.90;5.50;;;7.70;99.90;;;;;;483978;244;27940;-71
2022/05/01 05:45:43;;;;;;;7.13;6.43;;;7.80;99.90;;;;;;483971;245;27536;-70
2022/05/01 05:47:44;;;;;;;8.60;6.67;;;7.80;99.90;;;;;;483981;245;27871;-71
2022/05/01 05:49:45;;;;;;;8.50;6.70;;;7.70;99.90;;;;;;483984;245;28122;-69
2022/05/01 05:51:46;;;;;;;7.80;6.70;;;7.70;99.90;;;;;;483987;245;28147;-71
2022/05/01 05:53:48;;;;;;;9.63;7.50;;;7.80;99.90;;;;;;483989;245;27989;-72
2022/05/01 05:55:49;;;;;;;11.10;8.10;;;7.70;99.90;;;;;;483980;245;27856;-69
2022/05/01 05:57:50;;;;;;;10.70;8.47;;;7.70;99.90;;;;;;483950;245;28053;-71
2022/05/01 05:59:51;;;;;;;9.00;8.10;;;7.80;99.90;;;;;;483979;245;28586;-71
2022/05/01 06:01:53;;;;;;;8.53;6.97;;;7.90;99.90;;;;;;483993;245;28466;-70
2022/05/01 06:03:54;;;;;;;7.93;7.13;;;7.90;99.90;;;;;;483979;245;28249;-70
2022/05/01 06:05:55;;;;;;;8.70;7.80;;;7.90;99.90;;;;;;483942;245;29179;-70
2022/05/01 06:07:56;;;;;;;7.00;6.30;;;7.90;99.90;;;;;;483990;245;28601;-72
2022/05/01 06:09:58;;;;;;;7.43;6.73;;;8.00;99.90;;;;;;484005;245;28473;-74
2022/05/01 06:11:59;;;;;;;8.63;7.73;;;8.00;99.90;;;;;;483999;245;28602;-71
2022/05/01 06:14:00;;;;;;;7.60;6.80;;;8.00;99.90;;;;;;483976;245;28032;-69
2022/05/01 06:16:02;;;;;;;7.97;6.93;;;8.10;99.90;;;;;;483974;245;27932;-71
2022/05/01 06:18:03;;;;;;;7.33;6.53;;;8.20;99.90;;;;;;483985;245;27682;-71
2022/05/01 06:20:04;;;;;;;6.73;6.03;;;8.30;99.90;;;;;;483989;245;27899;-73
2022/05/01 06:22:05;;;;;;;7.70;6.90;;;8.30;99.90;;;;;;483976;244;27871;-70
2022/05/01 06:24:07;;;;;;;7.20;6.10;;;8.30;99.90;;;;;;483970;244;28028;-71
2022/05/01 06:26:08;;;;;;;8.00;6.40;;;8.30;99.90;;;;;;483942;246;27720;-74
2022/05/01 06:28:09;;;;;;;7.23;6.53;;;8.30;99.90;;;;;;484011;245;27886;-70
2022/05/01 06:30:11;;;;;;;8.70;6.90;;;8.30;99.90;;;;;;484031;244;27616;-68
2022/05/01 06:32:11;;;;;;;8.30;6.77;;;8.30;99.90;;;;;;483973;244;27644;-71
2022/05/01 06:34:13;;;;;;;7.80;6.97;;;8.40;99.90;;;;;;484005;245;28151;-71
2022/05/01 06:36:14;;;;;;;8.77;7.40;;;8.40;99.90;;;;;;483990;245;28005;-69
2022/05/01 06:38:15;;;;;;;7.60;6.80;;;8.40;99.90;;;;;;484010;245;27940;-71
2022/05/01 06:40:16;;;;;;;8.70;7.10;;;8.50;99.90;;;;;;483975;244;28150;-71
2022/05/01 06:42:18;;;;;;;8.30;7.30;;;8.60;99.90;;;;;;483981;245;28464;-71
2022/05/01 06:44:19;;;;;;;7.73;6.93;;;8.60;99.90;;;;;;483969;245;28152;-71
2022/05/01 06:46:20;;;;;;;7.50;6.73;;;8.70;99.90;;;;;;483985;245;29161;-70
2022/05/01 06:48:21;;;;;;;7.13;6.13;;;8.70;99.90;;;;;;484041;245;28195;-71
2022/05/01 06:50:23;;;;;;;8.00;6.90;;;8.80;99.90;;;;;;484025;245;28391;-73
2022/05/01 06:52:24;;;;;;;8.07;6.60;;;9.00;99.90;;;;;;483871;245;28072;-70
2022/05/01 06:54:25;;;;;;;7.60;6.90;;;8.90;99.90;;;;;;483807;245;28093;-70
2022/05/01 06:56:26;;;;;;;8.77;7.20;;;8.80;99.90;;;;;;484015;245;27889;-71
2022/05/01 06:58:28;;;;;;;10.13;6.83;;;8.80;99.90;;;;;;483883;245;27618;-70
2022/05/01 07:00:29;;;;;;;7.93;7.13;;;9.00;99.90;;;;;;484035;245;28060;-73
2022/05/01 07:02:30;;;;;;;7.93;6.80;;;9.00;99.90;;;;;;484021;240;28070;-71
2022/05/01 07:04:31;;;;;;;7.57;6.87;;;9.00;99.90;;;;;;484021;245;27888;-71
2022/05/01 07:06:33;;;;;;;8.83;7.47;;;8.90;99.90;;;;;;483957;244;27968;-71
2022/05/01 07:08:34;;;;;;;9.20;7.43;;;8.90;99.90;;;;;;484003;245;28100;-72
2022/05/01 07:10:35;;;;;;;8.37;7.30;;;9.00;99.90;;;;;;484025;245;27855;-73
2022/05/01 07:12:36;;;;;;;8.43;6.97;;;9.10;99.90;;;;;;484021;244;28117;-71
2022/05/01 07:14:38;;;;;;;9.50;6.97;;;9.20;99.90;;;;;;483976;245;27897;-70
2022/05/01 07:16:39;;;;;;;9.63;8.27;;;9.20;99.90;;;;;;483966;245;27653;-72
2022/05/01 07:18:40;;;;;;;12.57;8.60;;;9.00;99.90;;;;;;483963;245;28419;-72
2022/05/01 07:20:41;;;;;;;8.10;7.30;;;9.10;99.90;;;;;;483962;245;28589;-73
2022/05/01 07:22:43;;;;;;;8.37;7.50;;;9.30;99.90;;;;;;483990;245;28469;-69
2022/05/01 07:24:44;;;;;;;8.97;7.43;;;9.40;99.90;;;;;;483960;245;28485;-69
2022/05/01 07:26:45;;;;;;;12.00;7.30;;;9.50;99.90;;;;;;483969;245;28422;-71
2022/05/01 07:28:46;;;;;;;9.83;7.47;;;9.50;99.90;;;;;;484001;245;28371;-71
2022/05/01 07:30:48;;;;;;;8.50;7.60;;;9.60;99.90;;;;;;483931;240;28066;-72
2022/05/01 07:32:49;;;;;;;8.10;7.30;;;9.60;99.90;;;;;;483979;244;27990;-71
2022/05/01 07:34:50;;;;;;;9.70;7.33;;;9.80;99.90;;;;;;483857;245;28080;-71
2022/05/01 07:36:51;;;;;;;9.90;7.43;;;9.70;99.90;;;;;;483919;244;27976;-71
2022/05/01 07:38:53;;;;;;;8.13;7.23;;;9.90;99.90;;;;;;483983;245;28158;-71
2022/05/01 07:40:54;;;;;;;7.83;7.10;;;10.00;99.90;;;;;;483969;245;28105;-71
2022/05/01 07:42:55;;;;;;;13.37;9.10;;;10.00;99.90;;;;;;483967;244;28182;-71
2022/05/01 07:44:56;;;;;;;13.23;8.87;;;9.60;99.90;;;;;;483960;245;28538;-71
2022/05/01 07:46:58;;;;;;;9.67;8.73;;;9.60;99.90;;;;;;483980;245;28150;-71
2022/05/01 07:48:59;;;;;;;10.10;8.33;;;9.90;99.90;;;;;;483959;245;28090;-70
2022/05/01 07:51:00;;;;;;;10.57;9.00;;;10.10;99.90;;;;;;483979;245;28584;-72
2022/05/01 07:53:01;;;;;;;9.93;8.70;;;9.90;99.90;;;;;;483989;245;28748;-71
2022/05/01 07:55:03;;;;;;;11.03;8.20;;;9.90;99.90;;;;;;483978;245;28723;-72
2022/05/01 07:57:04;;;;;;;11.40;8.70;;;10.00;99.90;;;;;;483964;244;28433;-71
2022/05/01 07:59:05;;;;;;;9.63;8.63;;;10.20;99.90;;;;;;483973;244;28227;-70
2022/05/01 08:01:06;;;;;;;10.00;8.57;;;10.20;99.90;;;;;;483936;244;28291;-74
2022/05/01 08:05:29;;;;;;;9.73;8.20;;;10.30;99.90;;;;;;483957;246;28749;-69
2022/05/01 08:07:29;;;;;;;12.70;8.30;;;10.40;99.90;;;;;;483883;245;28826;-73
2022/05/01 08:09:30;;;;;;;15.07;8.00;;;10.60;99.90;;;;;;483965;246;28324;-72
2022/05/01 08:11:31;;;;;;;8.70;7.13;;;10.90;99.90;;;;;;475446;250;28130;-71
2022/05/01 08:13:34;;;;;;;12.37;7.90;;;;;;;;;;485363;245;28411;-71
2022/05/01 08:15:35;;;;;;;8.33;7.50;;;10.80;99.90;;;;;;485319;245;27745;-71
2022/05/01 08:17:36;;;;;;;9.13;7.70;;;10.90;99.90;;;;;;485471;244;28803;-71
2022/05/01 08:21:57;;;;;;;6.13;5.53;;;11.30;99.90;;;;;;483980;246;29065;-76
2022/05/01 08:23:58;;;;;;;6.93;5.57;;;11.60;99.90;;;;;;483999;245;28494;-71
2022/05/01 08:26:10;;;;;;;6.33;5.60;;;11.70;99.90;;;;;;483993;245;28799;-72
2022/05/01 08:28:01;;;;;;;5.80;5.23;;;11.50;99.90;;;;;;482744;245;28102;-71
2022/05/01 08:30:02;;;;;;;6.27;5.20;;;11.50;99.90;;;;;;483965;245;28013;-71
2022/05/01 08:32:03;;;;;;;6.43;5.73;;;11.40;99.90;;;;;;483972;245;28462;-71
2022/05/01 08:34:04;;;;;;;5.90;5.30;;;11.60;99.90;;;;;;483970;245;28282;-71
2022/05/01 08:36:06;;;;;;;6.40;5.80;;;11.90;99.90;;;;;;483971;245;28250;-72
2022/05/01 08:38:08;;;;;;;6.63;5.57;;;11.60;99.90;;;;;;483946;244;29314;-71
2022/05/01 08:40:08;;;;;;;6.27;5.57;;;11.60;99.90;;;;;;483881;246;28189;-71
2022/05/01 08:42:09;;;;;;;6.90;6.00;;;11.70;99.90;;;;;;483922;244;28153;-71
2022/05/01 08:44:11;;;;;;;7.33;6.50;;;11.60;99.90;;;;;;483915;244;28650;-71
2022/05/01 08:46:12;;;;;;;7.00;5.60;;;11.70;99.90;;;;;;483976;245;28793;-72
2022/05/01 08:48:13;;;;;;;6.07;5.47;;;11.70;99.90;;;;;;483836;245;28834;-71
2022/05/01 08:50:16;;;;;;;6.10;5.50;;;11.80;99.90;;;;;;483976;245;28230;-71
2022/05/01 08:52:18;;;;;;;5.90;5.27;;;11.90;99.90;;;;;;483898;246;28253;-71
2022/05/01 08:54:17;;;;;;;6.33;5.43;;;12.00;99.90;;;;;;483887;246;28463;-71
2022/05/01 08:56:18;;;;;;;7.43;5.27;;;12.00;99.90;;;;;;483988;245;28381;-71
2022/05/01 08:58:19;;;;;;;6.30;5.70;;;12.10;99.90;;;;;;483963;245;28085;-71
2022/05/01 09:00:21;;;;;;;7.83;7.03;;;11.90;99.90;;;;;;483992;245;28358;-72
2022/05/01 09:02:22;;;;;;;7.27;6.57;;;11.70;99.90;;;;;;483984;245;28301;-71
2022/05/01 09:04:23;;;;;;;6.10;5.50;;;12.00;99.90;;;;;;484011;245;28302;-71
2022/05/01 09:06:24;;;;;;;8.33;5.83;;;12.30;99.90;;;;;;483998;245;28660;-70
2022/05/01 09:08:26;;;;;;;6.53;5.73;;;12.50;99.90;;;;;;483951;245;28307;-72
2022/05/01 09:10:27;;;;;;;5.17;4.67;;;12.50;99.90;;;;;;483961;245;28966;-71
2022/05/01 09:14:49;;;;;;;5.77;5.13;;;12.70;99.90;;;;;;483998;246;28565;-73
2022/05/01 09:16:49;;;;;;;5.93;5.33;;;12.60;99.90;;;;;;483932;246;28129;-72
2022/05/01 09:18:50;;;;;;;7.40;5.00;;;12.40;99.90;;;;;;483981;245;28295;-71
2022/05/01 09:20:51;;;;;;;4.60;4.20;;;12.40;99.90;;;;;;483957;245;28475;-72
2022/05/01 09:22:53;;;;;;;6.33;4.70;;;12.60;99.90;;;;;;483997;245;28273;-73
2022/05/01 09:24:54;;;;;;;5.30;4.80;;;12.70;99.90;;;;;;483896;244;28582;-72
2022/05/01 09:26:57;;;;;;;5.03;4.53;;;12.70;99.90;;;;;;484004;245;28680;-73
2022/05/01 09:28:58;;;;;;;5.10;4.60;;;13.00;99.90;;;;;;483993;245;28384;-71
2022/05/01 09:31:00;;;;;;;5.10;4.60;;;13.20;99.90;;;;;;483996;245;28567;-71
2022/05/01 09:33:01;;;;;;;5.03;4.57;;;13.40;99.90;;;;;;484032;245;30032;-74
2022/05/01 09:35:02;;;;;;;5.67;5.07;;;13.20;99.90;;;;;;483965;245;29318;-71
2022/05/01 09:37:03;;;;;;;6.37;5.60;;;13.00;99.90;;;;;;484014;245;29432;-71
2022/05/01 09:39:05;;;;;;;6.73;6.03;;;13.10;99.90;;;;;;483999;245;28933;-71
2022/05/01 09:41:06;;;;;;;6.67;6.07;;;12.60;99.90;;;;;;483978;245;28924;-71
2022/05/01 09:43:07;;;;;;;10.80;6.27;;;12.50;99.90;;;;;;483972;245;28888;-72
2022/05/01 09:45:08;;;;;;;6.27;5.30;;;12.60;99.90;;;;;;483984;245;28835;-71
2022/05/01 09:47:11;;;;;;;5.00;4.50;;;13.00;99.90;;;;;;484013;244;28653;-73
2022/05/01 09:49:12;;;;;;;4.83;4.27;;;13.20;99.90;;;;;;483954;246;28555;-71
2022/05/01 09:51:12;;;;;;;5.23;4.40;;;13.20;99.90;;;;;;483983;245;28573;-71
2022/05/01 09:53:14;;;;;;;4.90;4.40;;;13.10;99.90;;;;;;484018;245;28930;-73
2022/05/01 09:55:15;;;;;;;4.70;4.20;;;12.90;99.90;;;;;;483971;245;29306;-71
2022/05/01 09:57:16;;;;;;;6.43;4.27;;;12.70;99.90;;;;;;484002;245;28796;-71
2022/05/01 09:59:17;;;;;;;4.80;4.40;;;12.70;99.90;;;;;;483977;245;28896;-71
2022/05/01 10:01:19;;;;;;;5.37;4.87;;;12.70;99.90;;;;;;483787;245;28555;-71
2022/05/01 10:03:20;;;;;;;6.13;5.60;;;12.60;99.90;;;;;;483917;245;28551;-71
2022/05/01 10:05:21;;;;;;;6.50;5.90;;;12.60;99.90;;;;;;483913;245;28493;-71
2022/05/01 10:07:22;;;;;;;5.53;5.03;;;12.50;99.90;;;;;;483928;244;28338;-73
2022/05/01 10:09:24;;;;;;;6.70;5.60;;;12.60;99.90;;;;;;483977;245;28526;-71
2022/05/01 10:11:26;;;;;;;8.33;6.13;;;12.50;99.90;;;;;;484002;245;28636;-71
2022/05/01 10:13:26;;;;;;;8.80;5.30;;;12.60;99.90;;;;;;483929;245;28801;-73
2022/05/01 10:15:27;;;;;;;5.97;5.47;;;12.80;99.90;;;;;;483977;245;28265;-72
2022/05/01 10:17:29;;;;;;;7.17;6.50;;;12.70;99.90;;;;;;483994;245;28269;-71
2022/05/01 10:19:30;;;;;;;7.20;5.57;;;12.40;99.90;;;;;;483993;245;28903;-71
2022/05/01 10:21:31;;;;;;;6.67;6.07;;;12.60;99.90;;;;;;484017;245;28943;-72
2022/05/01 10:23:32;;;;;;;7.43;6.63;;;12.50;99.90;;;;;;483974;244;29299;-71
2022/05/01 10:25:34;;;;;;;8.53;6.30;;;12.30;99.90;;;;;;484005;245;28205;-72
2022/05/01 10:27:35;;;;;;;12.83;6.60;;;12.40;99.90;;;;;;483976;245;28343;-72
2022/05/01 10:29:37;;;;;;;9.33;6.20;;;12.30;99.90;;;;;;483960;240;28546;-72
2022/05/01 10:33:57;;;;;;;6.40;5.70;;;12.70;99.90;;;;;;483966;245;29044;-76
2022/05/01 10:35:58;;;;;;;7.13;6.00;;;12.80;99.90;;;;;;483987;245;28922;-71
2022/05/01 10:38:00;;;;;;;6.37;5.23;;;12.80;99.90;;;;;;483972;245;28542;-72
2022/05/01 10:40:01;;;;;;;6.33;4.50;;;13.10;99.90;;;;;;483980;245;28431;-71
2022/05/01 10:42:02;;;;;;;6.00;5.40;;;13.30;99.90;;;;;;483989;245;28553;-71
2022/05/01 10:44:03;;;;;;;5.00;4.53;;;13.00;99.90;;;;;;483883;245;28587;-73
2022/05/01 10:46:05;;;;;;;6.67;5.67;;;13.00;99.90;;;;;;484002;245;28937;-72
2022/05/01 10:48:06;;;;;;;8.13;6.00;;;13.10;99.90;;;;;;483923;245;28891;-72
2022/05/01 10:50:07;;;;;;;6.03;5.23;;;13.00;99.90;;;;;;483983;245;28498;-71
2022/05/01 10:52:08;;;;;;;5.43;4.90;;;13.00;99.90;;;;;;483940;245;28483;-72
2022/05/01 10:54:09;;;;;;;8.13;5.80;;;13.20;99.90;;;;;;483976;245;28958;-71
2022/05/01 10:56:11;;;;;;;6.23;5.50;;;13.10;99.90;;;;;;484001;245;29334;-71
2022/05/01 10:58:12;;;;;;;6.40;4.70;;;13.20;99.90;;;;;;484001;245;29344;-72
2022/05/01 11:00:15;;;;;;;8.30;5.50;;;13.30;99.90;;;;;;484016;245;29406;-71